Time;durP1;ratioP1;P1;durP2;ratioP2;P2;SDS_P1;SDS_P2;PMS_P1;PMS_P2;Temp;Humidity;BMP_temperature;BMP_pressure;BME280_temperature;BME280_humidity;BME280_pressure;Samples;Min_cycle;Max_cycle;Signal;HPM_P1;HPM_P2
2021/01/09 00:01:39;;;;;;;26.50;13.90;;;0.60;99.90;;;-146.47;100.00;66290.13;4884814;29;20204;-76
2021/01/09 00:04:24;;;;;;;25.73;13.87;;;0.60;99.90;;;-146.47;100.00;66290.13;4896986;29;20212;-77
2021/01/09 00:07:10;;;;;;;20.93;12.60;;;0.60;99.90;;;-146.47;100.00;66290.13;4894877;29;20214;-77
2021/01/09 00:09:56;;;;;;;23.57;12.70;;;0.60;99.90;;;-146.47;100.00;66290.13;4898238;29;20273;-77
2021/01/09 00:12:41;;;;;;;22.43;13.50;;;0.60;99.90;;;-146.47;100.00;66290.13;4894795;29;20240;-77
2021/01/09 00:15:26;;;;;;;21.23;12.30;;;0.60;99.90;;;-146.47;100.00;66290.13;4897948;29;20593;-76
2021/01/09 00:18:11;;;;;;;19.00;11.70;;;0.60;99.90;;;-146.47;100.00;66290.13;4897200;29;20682;-77
2021/01/09 00:20:57;;;;;;;18.50;11.20;;;0.50;99.90;;;-146.47;100.00;66290.13;4895747;29;20343;-77
2021/01/09 00:23:42;;;;;;;18.07;11.10;;;0.50;99.90;;;-146.47;100.00;66290.13;4889996;29;20257;-76
2021/01/09 00:26:29;;;;;;;20.47;11.67;;;0.50;99.90;;;-146.47;100.00;66290.13;4896962;29;20228;-77
2021/01/09 00:29:14;;;;;;;23.13;12.00;;;0.50;99.90;;;-146.47;100.00;66290.13;4899830;29;20224;-77
2021/01/09 00:31:59;;;;;;;20.00;12.13;;;0.50;99.90;;;-146.47;100.00;66290.13;4898707;29;20311;-77
2021/01/09 00:34:44;;;;;;;22.73;12.80;;;0.50;99.90;;;-146.47;100.00;66290.13;4899021;29;20288;-77
2021/01/09 00:37:30;;;;;;;22.87;12.27;;;0.50;99.90;;;-146.47;100.00;66290.13;4898517;29;20275;-76
2021/01/09 00:40:15;;;;;;;24.30;12.33;;;0.60;99.90;;;-146.47;100.00;66290.13;4896759;29;20586;-76
2021/01/09 00:43:01;;;;;;;22.97;12.63;;;0.60;99.90;;;-146.47;100.00;66290.13;4899643;29;20208;-77
2021/01/09 00:45:46;;;;;;;25.53;13.73;;;0.60;99.90;;;-146.47;100.00;66290.13;4889701;29;20567;-76
2021/01/09 00:48:31;;;;;;;19.80;12.37;;;0.70;99.90;;;-146.47;100.00;66290.13;4897652;29;20719;-77
2021/01/09 00:51:18;;;;;;;20.17;10.97;;;0.70;99.90;;;-146.47;100.00;66290.13;4902834;29;20216;-77
2021/01/09 00:54:03;;;;;;;19.83;13.03;;;0.70;99.90;;;-146.47;100.00;66290.13;4919990;29;20475;-77
2021/01/09 00:56:52;;;;;;;22.07;12.13;;;0.70;99.90;;;-146.47;100.00;66290.13;4917010;29;20220;-77
2021/01/09 00:59:38;;;;;;;20.27;12.10;;;0.70;99.90;;;-146.47;100.00;66290.13;4919694;29;20246;-77
2021/01/09 01:02:23;;;;;;;18.57;11.20;;;0.70;99.90;;;-146.47;100.00;66290.13;4919930;29;20241;-78
2021/01/09 01:05:10;;;;;;;15.43;10.57;;;0.80;99.90;;;-146.47;100.00;66290.13;4919595;29;20259;-76
2021/01/09 01:07:56;;;;;;;18.47;9.90;;;0.70;99.90;;;-146.47;100.00;66290.13;4918950;29;20271;-77
2021/01/09 01:10:41;;;;;;;14.70;9.40;;;0.70;99.90;;;-146.47;100.00;66290.13;4921030;29;20285;-77
2021/01/09 01:13:26;;;;;;;17.07;9.17;;;0.70;99.90;;;-146.47;100.00;66290.13;4920460;29;20204;-77
2021/01/09 01:16:15;;;;;;;19.43;10.07;;;0.60;99.90;;;-146.47;100.00;66290.13;4911704;29;20678;-77
2021/01/09 01:19:00;;;;;;;18.23;10.37;;;0.60;99.90;;;-146.47;100.00;66290.13;4909907;29;20236;-76
2021/01/09 01:21:45;;;;;;;16.70;10.13;;;0.60;99.90;;;-146.47;100.00;66290.13;4893861;29;20216;-77
2021/01/09 01:24:31;;;;;;;16.90;10.13;;;0.50;99.90;;;-146.47;100.00;66290.13;4897325;29;20233;-76
2021/01/09 01:27:16;;;;;;;17.43;9.67;;;0.50;99.90;;;-146.47;100.00;66290.13;4898824;29;20236;-77
2021/01/09 01:30:02;;;;;;;15.47;10.07;;;0.40;99.90;;;-146.47;100.00;66290.13;4897057;29;20320;-76
2021/01/09 01:32:47;;;;;;;14.47;9.23;;;0.40;99.90;;;-146.47;100.00;66290.13;4896997;29;20216;-76
2021/01/09 01:35:32;;;;;;;15.93;9.60;;;0.40;99.90;;;-146.47;100.00;66290.13;4899906;29;20698;-76
2021/01/09 01:38:18;;;;;;;16.63;9.63;;;0.30;99.90;;;-146.47;100.00;66290.13;4898809;29;20319;-77
2021/01/09 01:41:05;;;;;;;18.17;10.17;;;0.30;99.90;;;-146.47;100.00;66290.13;4898489;29;20586;-77
2021/01/09 01:43:50;;;;;;;17.17;10.23;;;0.30;99.90;;;-146.47;100.00;66290.13;4896378;29;20583;-77
2021/01/09 01:46:35;;;;;;;17.70;9.80;;;0.30;99.90;;;-146.47;100.00;66290.13;4898770;29;20208;-76
2021/01/09 01:49:21;;;;;;;19.23;10.43;;;0.30;99.90;;;-146.47;100.00;66290.13;4901761;29;20231;-77
2021/01/09 01:52:07;;;;;;;15.93;9.40;;;0.20;99.90;;;-146.47;100.00;66290.13;4901060;29;20269;-76
2021/01/09 01:54:53;;;;;;;16.57;9.67;;;0.20;99.90;;;-146.47;100.00;66290.13;4898665;29;20207;-77
2021/01/09 01:57:38;;;;;;;14.70;9.10;;;0.20;99.90;;;-146.47;100.00;66290.13;4894429;29;20223;-77
2021/01/09 02:00:24;;;;;;;15.63;8.90;;;0.20;99.90;;;-146.47;100.00;66290.13;4897846;29;20658;-77
2021/01/09 02:03:09;;;;;;;20.40;9.80;;;0.30;99.90;;;-146.47;100.00;66290.13;4888105;29;20207;-77
2021/01/09 02:06:08;;;;;;;15.07;9.13;;;0.10;99.90;;;-146.47;100.00;66290.13;4896488;29;20237;-76
2021/01/09 02:09:06;;;;;;;16.87;9.07;;;0.20;99.90;;;-146.47;100.00;66290.13;4892901;29;20232;-77
2021/01/09 02:12:02;;;;;;;12.27;8.07;;;0.10;99.90;;;-146.47;100.00;66290.13;4887501;29;20738;-76
2021/01/09 02:14:52;;;;;;;16.30;8.27;;;0.10;99.90;;;-146.47;100.00;66290.13;4896860;29;20253;-77
2021/01/09 02:17:39;;;;;;;15.27;8.37;;;0.00;99.90;;;-146.47;100.00;66290.13;4897121;29;20273;-77
2021/01/09 02:20:29;;;;;;;14.07;8.23;;;0.20;99.90;;;-146.47;100.00;66290.13;4898138;29;20239;-76
2021/01/09 02:23:15;;;;;;;13.27;8.47;;;0.00;99.90;;;-146.47;100.00;66290.13;4894374;29;20706;-77
2021/01/09 02:26:01;;;;;;;15.30;8.90;;;0.00;99.90;;;-146.47;100.00;66290.13;4897232;29;20751;-76
2021/01/09 02:28:46;;;;;;;17.57;9.13;;;0.10;99.90;;;-146.47;100.00;66290.13;4888756;29;20856;-76
2021/01/09 02:31:39;;;;;;;16.43;9.30;;;-0.10;99.90;;;-146.47;100.00;66290.13;4894151;29;20224;-76
2021/01/09 02:34:30;;;;;;;16.30;8.97;;;-0.10;99.90;;;-146.47;100.00;66290.13;4895383;29;20212;-77
2021/01/09 02:37:15;;;;;;;15.83;9.17;;;-0.10;99.90;;;-146.47;100.00;66290.13;4888380;29;20224;-76
2021/01/09 02:40:01;;;;;;;17.27;9.90;;;-0.10;99.90;;;-146.47;100.00;66290.13;4895495;29;20640;-77
2021/01/09 02:42:47;;;;;;;16.43;9.20;;;-0.10;99.90;;;-146.47;100.00;66290.13;4895686;29;20702;-78
2021/01/09 02:45:32;;;;;;;15.87;9.43;;;-0.10;99.90;;;-146.47;100.00;66290.13;4897052;29;20286;-76
2021/01/09 02:48:17;;;;;;;17.13;9.87;;;-0.10;99.90;;;-146.47;100.00;66290.13;4895896;29;20272;-76
2021/01/09 02:51:03;;;;;;;19.73;10.33;;;-0.10;99.90;;;-146.47;100.00;66290.13;4895304;29;20269;-76
2021/01/09 02:53:47;;;;;;;17.50;10.23;;;-0.10;99.90;;;-146.47;100.00;66290.13;4897164;29;20232;-76
2021/01/09 02:56:33;;;;;;;15.07;8.93;;;-0.20;99.90;;;-146.47;100.00;66290.13;4888275;29;20304;-77
2021/01/09 02:59:19;;;;;;;15.10;8.93;;;-0.20;99.90;;;-146.47;100.00;66290.13;4895132;29;20232;-76
2021/01/09 03:02:04;;;;;;;14.60;8.80;;;-0.20;99.90;;;-146.47;100.00;66290.13;4896531;29;20353;-76
2021/01/09 03:04:49;;;;;;;14.97;8.47;;;-0.20;99.90;;;-146.47;100.00;66290.13;4892089;29;20264;-76
2021/01/09 03:07:34;;;;;;;16.33;8.83;;;-0.20;99.90;;;-146.47;100.00;66290.13;4890254;29;20612;-76
2021/01/09 03:10:19;;;;;;;15.33;9.40;;;-0.20;99.90;;;-146.47;100.00;66290.13;4897061;29;20219;-76
2021/01/09 03:13:05;;;;;;;18.00;9.20;;;-0.20;99.90;;;-146.47;100.00;66290.13;4895258;29;20301;-76
2021/01/09 03:15:51;;;;;;;17.47;9.23;;;-0.20;99.90;;;-146.47;100.00;66290.13;4892621;29;20235;-76
2021/01/09 03:18:36;;;;;;;15.53;8.80;;;-0.30;99.90;;;-146.47;100.00;66290.13;4888456;29;20610;-77
2021/01/09 03:21:21;;;;;;;13.97;8.33;;;-0.20;99.90;;;-146.47;100.00;66290.13;4895953;29;20292;-76
2021/01/09 03:24:07;;;;;;;15.37;8.63;;;-0.30;99.90;;;-146.47;100.00;66290.13;4895646;29;20312;-77
2021/01/09 03:26:52;;;;;;;15.60;8.17;;;-0.30;99.90;;;-146.47;100.00;66290.13;4893497;29;20212;-76
2021/01/09 03:29:38;;;;;;;16.07;8.03;;;-0.30;99.90;;;-146.47;100.00;66290.13;4894777;29;20224;-76
2021/01/09 03:32:23;;;;;;;14.97;8.33;;;-0.30;99.90;;;-146.47;100.00;66290.13;4896250;29;20235;-76
2021/01/09 03:35:09;;;;;;;14.77;8.57;;;-0.30;99.90;;;-146.47;100.00;66290.13;4894803;29;20223;-77
2021/01/09 03:37:55;;;;;;;14.80;8.13;;;-0.40;99.90;;;-146.47;100.00;66290.13;4897326;29;20251;-76
2021/01/09 03:40:40;;;;;;;17.10;8.90;;;-0.30;99.90;;;-146.47;100.00;66290.13;4906099;29;20247;-76
2021/01/09 03:43:25;;;;;;;15.93;9.13;;;-0.30;99.90;;;-146.47;100.00;66290.13;4914607;29;20438;-76
2021/01/09 03:46:11;;;;;;;16.33;8.47;;;-0.40;99.90;;;-146.47;100.00;66290.13;4909307;29;20263;-76
2021/01/09 03:48:56;;;;;;;19.70;10.10;;;-0.40;99.90;;;-146.47;100.00;66290.13;4915706;29;20260;-76
2021/01/09 03:51:41;;;;;;;16.07;8.80;;;-0.20;99.90;;;-146.47;100.00;66290.13;4930801;29;20322;-76
2021/01/09 03:54:26;;;;;;;17.83;9.47;;;-0.40;99.90;;;-146.47;100.00;66290.13;4929711;29;20247;-75
2021/01/09 03:57:11;;;;;;;16.20;10.10;;;-0.40;99.90;;;-146.47;100.00;66290.13;4912933;29;20211;-77
2021/01/09 03:59:57;;;;;;;18.90;10.47;;;-0.40;99.90;;;-146.47;100.00;66290.13;4922593;29;20235;-76
2021/01/09 04:02:43;;;;;;;15.83;9.70;;;-0.30;99.90;;;-146.47;100.00;66290.13;4928684;29;20263;-77
2021/01/09 04:05:28;;;;;;;16.93;8.87;;;-0.30;99.90;;;-146.47;100.00;66290.13;4923177;29;20226;-75
2021/01/09 04:08:13;;;;;;;17.63;9.53;;;-0.30;99.90;;;-146.47;100.00;66290.13;4906058;29;20638;-76
2021/01/09 04:10:59;;;;;;;17.30;8.70;;;-0.20;99.90;;;-146.47;100.00;66290.13;4918346;29;20587;-76
2021/01/09 04:13:44;;;;;;;18.40;9.67;;;-0.30;99.90;;;-146.47;100.00;66290.13;4918117;29;20216;-75
2021/01/09 04:16:29;;;;;;;14.80;8.93;;;-0.30;99.90;;;-146.47;100.00;66290.13;4908227;29;20387;-77
2021/01/09 04:19:15;;;;;;;15.87;9.07;;;-0.30;99.90;;;-146.47;100.00;66290.13;4913063;29;20235;-76
2021/01/09 04:22:00;;;;;;;15.57;9.07;;;-0.30;99.90;;;-146.47;100.00;66290.13;4907106;29;20223;-77
2021/01/09 04:24:45;;;;;;;16.23;9.80;;;-0.30;99.90;;;-146.47;100.00;66290.13;4917668;29;20725;-76
2021/01/09 04:27:30;;;;;;;17.63;9.77;;;-0.40;99.90;;;-146.47;100.00;66290.13;4917213;29;20709;-75
2021/01/09 04:30:17;;;;;;;15.90;9.90;;;-0.30;99.90;;;-146.47;100.00;66290.13;4904464;29;20728;-77
2021/01/09 04:33:02;;;;;;;16.93;9.87;;;-0.30;99.90;;;-146.47;100.00;66290.13;4916854;29;20615;-76
2021/01/09 04:35:48;;;;;;;16.43;9.90;;;-0.40;99.90;;;-146.47;100.00;66290.13;4924719;29;20804;-77
2021/01/09 04:38:33;;;;;;;17.37;9.73;;;-0.30;99.90;;;-146.47;100.00;66290.13;4918373;29;20687;-76
2021/01/09 04:41:21;;;;;;;19.13;9.93;;;-0.30;99.90;;;-146.47;100.00;66290.13;4922679;29;20254;-76
2021/01/09 04:44:08;;;;;;;16.87;9.43;;;-0.40;99.90;;;-146.47;100.00;66290.13;4906489;29;20273;-76
2021/01/09 04:46:58;;;;;;;15.87;9.63;;;-0.40;99.90;;;-146.47;100.00;66290.13;4917210;29;20219;-77
2021/01/09 04:49:44;;;;;;;16.77;9.07;;;-0.40;99.90;;;-146.47;100.00;66290.13;4906901;29;20621;-76
2021/01/09 04:52:31;;;;;;;18.27;10.03;;;-0.40;99.90;;;-146.47;100.00;66290.13;4917093;29;20226;-75
2021/01/09 04:55:17;;;;;;;20.27;10.63;;;-0.40;99.90;;;-146.47;100.00;66290.13;4921575;29;20576;-76
2021/01/09 04:58:03;;;;;;;23.20;11.70;;;-0.40;99.90;;;-146.47;100.00;66290.13;4926334;29;20267;-76
2021/01/09 05:00:53;;;;;;;26.33;13.17;;;-0.40;99.90;;;-146.47;100.00;66290.13;4912945;29;20292;-76
2021/01/09 05:03:39;;;;;;;40.50;12.97;;;-0.40;99.90;;;-146.47;100.00;66290.13;4900064;29;20230;-76
2021/01/09 05:06:24;;;;;;;36.53;12.63;;;-0.30;99.90;;;-146.47;100.00;66290.13;4904452;29;20323;-76
2021/01/09 05:09:14;;;;;;;29.07;12.90;;;-0.30;99.90;;;-146.47;100.00;66290.13;4898737;29;20268;-76
2021/01/09 05:11:59;;;;;;;67.40;15.37;;;-0.30;99.90;;;-146.47;100.00;66290.13;4898095;29;20224;-76
2021/01/09 05:14:45;;;;;;;41.83;12.93;;;-0.30;99.90;;;-146.47;100.00;66290.13;4908492;29;20295;-76
2021/01/09 05:17:30;;;;;;;35.43;12.33;;;-0.10;99.90;;;-146.47;100.00;66290.13;4919231;29;20210;-76
2021/01/09 05:20:15;;;;;;;65.47;14.20;;;-0.30;99.90;;;-146.47;100.00;66290.13;4911674;29;20267;-77
2021/01/09 05:23:02;;;;;;;41.57;12.70;;;-0.20;99.90;;;-146.47;100.00;66290.13;4918074;29;20295;-75
2021/01/09 05:25:48;;;;;;;31.87;11.87;;;-0.20;99.90;;;-146.47;100.00;66290.13;4919118;29;20280;-77
2021/01/09 05:28:34;;;;;;;47.57;13.37;;;-0.20;99.90;;;-146.47;100.00;66290.13;4906969;29;20251;-75
2021/01/09 05:31:22;;;;;;;36.03;12.90;;;-0.10;99.90;;;-146.47;100.00;66290.13;4917432;29;20239;-75
2021/01/09 05:34:07;;;;;;;46.30;14.13;;;-0.10;99.90;;;-146.47;100.00;66290.13;4918183;29;20589;-77
2021/01/09 05:36:52;;;;;;;59.03;14.00;;;-0.10;99.90;;;-146.47;100.00;66290.13;4918345;29;20299;-76
2021/01/09 05:39:55;;;;;;;55.57;14.80;;;-0.10;99.90;;;-146.47;100.00;66290.13;4918297;29;20242;-76
2021/01/09 05:42:41;;;;;;;67.90;14.13;;;-0.10;99.90;;;-146.47;100.00;66290.13;4917296;29;20291;-76
2021/01/09 05:45:26;;;;;;;42.93;13.17;;;-0.10;99.90;;;-146.47;100.00;66290.13;4906759;29;20304;-76
2021/01/09 05:48:11;;;;;;;58.23;15.07;;;0.00;99.90;;;-146.47;100.00;66290.13;4905583;29;20260;-76
2021/01/09 05:50:59;;;;;;;60.13;14.30;;;0.10;99.90;;;-146.47;100.00;66290.13;4913282;29;20250;-76
2021/01/09 05:53:47;;;;;;;45.37;13.80;;;0.00;99.90;;;-146.47;100.00;66290.13;4918738;29;20200;-76
2021/01/09 05:56:39;;;;;;;41.17;13.37;;;0.00;99.90;;;-146.47;100.00;66290.13;4918281;29;20232;-77
2021/01/09 05:59:27;;;;;;;51.27;14.10;;;0.00;99.90;;;-146.47;100.00;66290.13;4915916;29;20235;-76
2021/01/09 06:02:13;;;;;;;56.53;13.43;;;0.00;99.90;;;-146.47;100.00;66290.13;4913539;29;20676;-77
2021/01/09 06:05:14;;;;;;;;;;;;;;;;;;;;;
2021/01/09 06:08:07;;;;;;;39.97;12.33;;;0.10;99.90;;;-146.47;100.00;66290.13;4904191;29;20222;-76
2021/01/09 06:10:59;;;;;;;44.53;12.13;;;0.10;99.90;;;-146.47;100.00;66290.13;4914701;29;20228;-77
2021/01/09 06:13:48;;;;;;;38.00;12.03;;;0.10;99.90;;;-146.47;100.00;66290.13;4916740;29;20269;-76
2021/01/09 06:16:37;;;;;;;58.87;12.00;;;0.10;99.90;;;-146.47;100.00;66290.13;4906758;29;20206;-78
2021/01/09 06:19:23;;;;;;;38.97;11.40;;;0.10;99.90;;;-146.47;100.00;66290.13;4915568;29;20223;-77
2021/01/09 06:22:10;;;;;;;36.43;11.67;;;0.10;99.90;;;-146.47;100.00;66290.13;4918112;29;20207;-76
2021/01/09 06:24:56;;;;;;;42.33;12.80;;;0.10;99.90;;;-146.47;100.00;66290.13;4906245;29;20259;-77
2021/01/09 06:27:48;;;;;;;67.60;14.10;;;0.10;99.90;;;-146.47;100.00;66290.13;4916433;29;20207;-76
2021/01/09 06:30:37;;;;;;;44.57;11.63;;;0.10;99.90;;;-146.47;100.00;66290.13;4917864;29;20279;-76
2021/01/09 06:33:24;;;;;;;42.17;13.27;;;0.10;99.90;;;-146.47;100.00;66290.13;4904704;29;20223;-77
2021/01/09 06:36:14;;;;;;;47.70;11.63;;;0.10;99.90;;;-146.47;100.00;66290.13;4917235;29;20208;-76
2021/01/09 06:39:02;;;;;;;41.27;11.77;;;0.10;99.90;;;-146.47;100.00;66290.13;4915853;29;20255;-76
2021/01/09 06:41:49;;;;;;;73.47;14.57;;;0.10;99.90;;;-146.47;100.00;66290.13;4914127;29;20690;-76
2021/01/09 06:44:35;;;;;;;45.53;13.27;;;0.10;99.90;;;-146.47;100.00;66290.13;4934146;29;20275;-76
2021/01/09 06:47:26;;;;;;;84.57;15.33;;;0.10;99.90;;;-146.47;100.00;66290.13;4937744;29;20212;-76
2021/01/09 06:50:33;;;;;;;88.83;15.27;;;0.10;99.90;;;-146.47;100.00;66290.13;4933063;29;20224;-76
2021/01/09 06:53:18;;;;;;;54.73;13.70;;;0.10;99.90;;;-146.47;100.00;66290.13;4915677;29;20214;-77
2021/01/09 06:56:08;;;;;;;94.70;15.43;;;0.10;99.90;;;-146.47;100.00;66290.13;4918344;29;20255;-76
2021/01/09 06:58:53;;;;;;;89.80;13.80;;;0.00;99.90;;;-146.47;100.00;66290.13;4915843;29;20612;-76
2021/01/09 07:01:39;;;;;;;90.83;16.67;;;0.00;99.90;;;-146.47;100.00;66290.13;4910439;29;20216;-77
2021/01/09 07:05:00;;;;;;;113.70;17.40;;;0.00;99.90;;;-146.47;100.00;66290.13;4914129;29;20207;-75
2021/01/09 07:07:54;;;;;;;47.20;13.37;;;0.00;99.90;;;-146.47;100.00;66290.13;4911448;29;20215;-76
2021/01/09 07:10:48;;;;;;;47.60;13.00;;;0.00;99.90;;;-146.47;100.00;66290.13;4915653;29;20236;-76
2021/01/09 07:13:33;;;;;;;31.40;12.33;;;0.00;99.90;;;-146.47;100.00;66290.13;4915096;29;20472;-77
2021/01/09 07:16:21;;;;;;;64.00;14.33;;;0.00;99.90;;;-146.47;100.00;66290.13;4914469;29;20211;-77
2021/01/09 07:19:11;;;;;;;115.70;18.67;;;0.00;99.90;;;-146.47;100.00;66290.13;4913668;29;20597;-77
2021/01/09 07:21:59;;;;;;;36.90;13.73;;;0.00;99.90;;;-146.47;100.00;66290.13;4912824;29;20215;-75
2021/01/09 07:24:50;;;;;;;101.43;17.80;;;0.00;99.90;;;-146.47;100.00;66290.13;4913349;29;20283;-76
2021/01/09 07:27:41;;;;;;;83.67;17.13;;;0.00;99.90;;;-146.47;100.00;66290.13;4918266;29;20199;-76
2021/01/09 07:30:29;;;;;;;67.30;14.17;;;0.00;99.90;;;-146.47;100.00;66290.13;4909370;29;20327;-76
2021/01/09 07:33:15;;;;;;;62.10;13.80;;;0.00;99.90;;;-146.47;100.00;66290.13;4921992;29;20570;-76
2021/01/09 07:36:01;;;;;;;35.97;12.00;;;0.10;99.90;;;-146.47;100.00;66290.13;4919917;29;20207;-76
2021/01/09 07:38:47;;;;;;;84.90;16.73;;;0.00;99.90;;;-146.47;100.00;66290.13;4920552;29;20242;-76
2021/01/09 07:41:35;;;;;;;65.27;13.77;;;0.00;99.90;;;-146.47;100.00;66290.13;4921591;29;20624;-77
2021/01/09 07:44:23;;;;;;;49.43;12.70;;;0.00;99.90;;;-146.47;100.00;66290.13;4914621;29;20207;-76
2021/01/09 07:47:10;;;;;;;20.77;11.20;;;0.00;99.90;;;-146.47;100.00;66290.13;4917107;29;20230;-77
2021/01/09 07:49:56;;;;;;;22.20;11.03;;;0.00;99.90;;;-146.47;100.00;66290.13;4918278;29;20244;-76
2021/01/09 07:52:41;;;;;;;21.27;11.73;;;0.10;99.90;;;-146.47;100.00;66290.13;4917755;29;20251;-77
2021/01/09 07:55:44;;;;;;;24.93;12.37;;;0.00;99.90;;;-146.47;100.00;66290.13;4915209;29;20243;-76
2021/01/09 07:58:44;;;;;;;22.57;11.07;;;0.00;99.90;;;-146.47;100.00;66290.13;4918490;29;20259;-76
2021/01/09 08:01:29;;;;;;;22.13;11.60;;;0.10;99.90;;;-146.47;100.00;66290.13;4915325;29;20561;-77
2021/01/09 08:04:14;;;;;;;18.47;11.87;;;0.10;99.90;;;-146.47;100.00;66290.13;4922965;29;20294;-76
2021/01/09 08:07:00;;;;;;;16.30;10.77;;;0.10;99.90;;;-146.47;100.00;66290.13;4931773;29;20275;-77
2021/01/09 08:09:45;;;;;;;16.60;10.40;;;0.10;99.90;;;-146.47;100.00;66290.13;4920538;29;20769;-77
2021/01/09 08:12:30;;;;;;;19.90;11.20;;;0.10;99.90;;;-146.47;100.00;66290.13;4936015;29;20305;-76
2021/01/09 08:15:16;;;;;;;17.90;11.43;;;0.20;99.90;;;-146.47;100.00;66290.13;4925227;29;21062;-76
2021/01/09 08:18:03;;;;;;;19.13;11.33;;;0.20;99.90;;;-146.47;100.00;66290.13;4907517;29;20204;-76
2021/01/09 08:20:49;;;;;;;19.50;11.77;;;0.20;99.90;;;-146.47;100.00;66290.13;4921226;29;20222;-76
2021/01/09 08:23:34;;;;;;;17.93;11.57;;;0.20;99.90;;;-146.47;100.00;66290.13;4921993;29;20689;-77
2021/01/09 08:26:21;;;;;;;21.13;12.67;;;0.20;99.90;;;-146.47;100.00;66290.13;4910163;29;20294;-77
2021/01/09 08:29:06;;;;;;;26.43;13.50;;;0.20;99.90;;;-146.47;100.00;66290.13;4934775;29;20252;-75
2021/01/09 08:31:54;;;;;;;28.13;14.07;;;0.20;99.90;;;-146.47;100.00;66290.13;4942787;29;20653;-77
2021/01/09 08:34:48;;;;;;;16.63;9.27;;;0.20;99.90;;;-146.47;100.00;66290.13;4942384;29;20219;-76
2021/01/09 08:37:34;;;;;;;26.63;14.53;;;0.30;99.90;;;-146.47;100.00;66290.13;4949521;29;20207;-76
2021/01/09 08:40:23;;;;;;;25.63;14.43;;;0.30;99.90;;;-146.47;100.00;66290.13;4921923;29;20769;-76
2021/01/09 08:43:10;;;;;;;25.40;15.23;;;0.40;99.90;;;-146.47;100.00;66290.13;4918971;29;20236;-75
2021/01/09 08:45:56;;;;;;;26.23;15.43;;;0.40;99.90;;;-146.47;100.00;66290.13;4920392;29;20215;-76
2021/01/09 08:48:41;;;;;;;24.50;14.90;;;0.50;99.90;;;-146.47;100.00;66290.13;4912406;29;20536;-76
2021/01/09 08:51:31;;;;;;;28.67;16.67;;;0.50;99.90;;;-146.47;100.00;66290.13;4919978;29;20340;-76
2021/01/09 08:54:21;;;;;;;24.87;15.67;;;0.60;99.90;;;-146.47;100.00;66290.13;4918419;29;20263;-76
2021/01/09 08:57:07;;;;;;;32.83;17.10;;;0.60;99.90;;;-146.47;100.00;66290.13;4926582;29;20210;-77
2021/01/09 08:59:52;;;;;;;26.87;16.03;;;0.60;99.90;;;-146.47;100.00;66290.13;4919255;29;20259;-77
2021/01/09 09:02:39;;;;;;;26.57;16.97;;;0.70;99.90;;;-146.47;100.00;66290.13;4904604;29;20212;-76
2021/01/09 09:05:28;;;;;;;26.93;16.30;;;0.70;99.90;;;-146.47;100.00;66290.13;4917627;29;20240;-77
2021/01/09 09:08:16;;;;;;;26.70;15.27;;;0.80;99.90;;;-146.47;100.00;66290.13;4917583;29;20211;-78
2021/01/09 09:11:03;;;;;;;21.97;14.57;;;0.90;99.90;;;-146.47;100.00;66290.13;4919483;29;20312;-77
2021/01/09 09:14:04;;;;;;;25.07;15.73;;;0.90;99.90;;;-146.47;100.00;66290.13;4921352;29;20219;-76
2021/01/09 09:16:58;;;;;;;29.57;17.57;;;1.00;99.90;;;-146.47;100.00;66290.13;4917422;29;20770;-77
2021/01/09 09:19:45;;;;;;;641.33;95.60;;;1.00;99.90;;;-146.47;100.00;66290.13;4906795;29;20250;-78
2021/01/09 09:22:31;;;;;;;32.63;19.93;;;1.10;99.90;;;-146.47;100.00;66290.13;4920191;29;20276;-77
2021/01/09 09:25:23;;;;;;;39.60;22.50;;;1.20;99.90;;;-146.47;100.00;66290.13;4922679;29;20690;-77
2021/01/09 09:28:08;;;;;;;36.77;21.60;;;1.20;99.90;;;-146.47;100.00;66290.13;4920629;29;20220;-78
2021/01/09 09:30:55;;;;;;;34.53;21.63;;;1.30;99.90;;;-146.47;100.00;66290.13;4920602;29;20226;-78
2021/01/09 09:33:40;;;;;;;32.73;18.80;;;1.40;99.90;;;-146.47;100.00;66290.13;4908031;29;20255;-78
2021/01/09 09:36:26;;;;;;;29.37;19.17;;;1.50;99.90;;;-146.47;100.00;66290.13;4920086;29;20242;-77
2021/01/09 09:39:18;;;;;;;29.03;18.40;;;1.40;99.90;;;-146.47;100.00;66290.13;4907886;29;20276;-77
2021/01/09 09:42:03;;;;;;;32.00;17.73;;;1.60;99.90;;;-146.47;100.00;66290.13;4909145;29;20243;-78
2021/01/09 09:44:48;;;;;;;27.00;17.10;;;1.50;99.90;;;-146.47;100.00;66290.13;4920585;29;20216;-77
2021/01/09 09:47:35;;;;;;;23.23;15.73;;;1.80;99.90;;;-146.47;100.00;66290.13;4912162;29;20303;-77
2021/01/09 09:50:21;;;;;;;25.80;17.53;;;1.70;99.90;;;-146.47;100.00;66290.13;4920894;29;20215;-78
2021/01/09 09:53:06;;;;;;;31.07;18.77;;;1.70;99.90;;;-146.47;100.00;66290.13;4919470;29;20255;-77
2021/01/09 09:55:52;;;;;;;24.87;15.70;;;1.80;99.90;;;-146.47;100.00;66290.13;4920952;29;20243;-77
2021/01/09 09:58:38;;;;;;;24.37;16.10;;;1.80;99.90;;;-146.47;100.00;66290.13;4923905;29;20623;-78
2021/01/09 10:01:23;;;;;;;29.27;18.80;;;1.80;99.90;;;-146.47;100.00;66290.13;4926437;29;20304;-77
2021/01/09 10:04:11;;;;;;;35.60;20.73;;;1.90;99.90;;;-146.47;100.00;66290.13;4919529;29;20318;-78
2021/01/09 10:06:57;;;;;;;35.20;22.23;;;1.90;99.90;;;-146.47;100.00;66290.13;4918056;29;20207;-77
2021/01/09 10:09:42;;;;;;;33.80;20.67;;;2.00;99.90;;;-146.47;100.00;66290.13;4909436;29;20240;-77
2021/01/09 10:12:28;;;;;;;35.47;20.87;;;2.10;99.90;;;-146.47;100.00;66290.13;4920737;29;20238;-77
2021/01/09 10:15:13;;;;;;;29.27;19.47;;;2.10;99.90;;;-146.47;100.00;66290.13;4938527;29;20224;-77
2021/01/09 10:18:01;;;;;;;35.17;19.87;;;2.20;99.90;;;-146.47;100.00;66290.13;4905265;29;20706;-77
2021/01/09 10:20:45;;;;;;;27.83;18.47;;;2.20;99.90;;;-146.47;100.00;66290.13;4912873;29;20203;-77
2021/01/09 10:23:31;;;;;;;28.57;19.03;;;2.20;99.90;;;-146.47;100.00;66290.13;4911469;29;20442;-77
2021/01/09 10:26:28;;;;;;;74.17;28.60;;;2.20;99.90;;;-146.47;100.00;66290.13;4914218;29;20216;-77
2021/01/09 10:29:15;;;;;;;55.13;28.17;;;2.20;99.90;;;-146.47;100.00;66290.13;4913762;29;20284;-77
2021/01/09 10:32:01;;;;;;;62.23;35.77;;;2.30;99.90;;;-146.47;100.00;66290.13;4924882;29;20741;-77
2021/01/09 10:34:46;;;;;;;71.17;40.97;;;2.40;99.90;;;-146.47;100.00;66290.13;4914123;29;20240;-76
2021/01/09 10:37:31;;;;;;;84.10;47.50;;;2.70;99.90;;;-146.47;100.00;66290.13;4915347;29;20219;-77
2021/01/09 10:40:18;;;;;;;95.63;53.30;;;3.00;99.90;;;-146.47;100.00;66290.13;4921680;29;20368;-77
2021/01/09 10:43:03;;;;;;;91.87;53.37;;;3.20;99.90;;;-146.47;100.00;66290.13;4916568;29;20212;-78
2021/01/09 10:45:49;;;;;;;97.60;61.03;;;3.50;99.90;;;-146.47;100.00;66290.13;4917258;29;20356;-77
2021/01/09 10:48:35;;;;;;;105.93;63.27;;;3.80;99.90;;;-146.47;100.00;66290.13;4914421;29;20240;-78
2021/01/09 10:51:22;;;;;;;101.27;65.90;;;4.20;99.90;;;-146.47;100.00;66290.13;4913379;29;20261;-77
2021/01/09 10:54:07;;;;;;;98.30;61.30;;;4.70;99.90;;;-146.47;100.00;66290.13;4911891;29;20212;-77
2021/01/09 10:56:52;;;;;;;84.57;57.97;;;5.00;99.90;;;-146.47;100.00;66290.13;4915863;29;20215;-77
2021/01/09 10:59:40;;;;;;;76.37;53.07;;;5.30;99.90;;;-146.47;100.00;66290.13;4909422;29;20623;-77
2021/01/09 11:02:26;;;;;;;69.00;48.00;;;5.60;99.90;;;-146.47;100.00;66290.13;4911195;29;20203;-77
2021/01/09 11:05:11;;;;;;;54.27;39.30;;;5.80;99.90;;;-146.47;100.00;66290.13;4914478;29;20215;-77
2021/01/09 11:07:56;;;;;;;42.23;31.90;;;6.00;99.90;;;-146.47;100.00;66290.13;4911882;29;20207;-76
2021/01/09 11:10:41;;;;;;;37.07;27.77;;;6.20;99.90;;;-146.47;100.00;66290.13;4913897;29;20394;-78
2021/01/09 11:13:26;;;;;;;32.03;23.50;;;6.20;99.90;;;-146.47;100.00;66290.13;4912392;29;20671;-76
2021/01/09 11:16:12;;;;;;;26.30;17.67;;;6.20;99.90;;;-146.47;100.00;66290.13;4911483;29;20211;-77